Time;durP1;ratioP1;P1;durP2;ratioP2;P2;SDS_P1;SDS_P2;PMS_P1;PMS_P2;Temp;Humidity;BMP_temperature;BMP_pressure;BME280_temperature;BME280_humidity;BME280_pressure;Samples;Min_cycle;Max_cycle;Signal;HPM_P1;HPM_P2
2021/10/29 00:02:18;;;;;;;20.92;14.35;;;;;;;;;;5033683;28;20465;-88
2021/10/29 00:04:43;;;;;;;19.92;14.18;;;;;;;;;;5051602;28;20021;-88
2021/10/29 00:07:09;;;;;;;19.73;14.90;;;;;;;;;;5051796;28;20396;-88
2021/10/29 00:09:35;;;;;;;16.33;13.88;;;;;;;;;;5033620;28;20321;-88
2021/10/29 00:12:00;;;;;;;17.00;13.82;;;;;;;;;;5033235;28;20020;-89
2021/10/29 00:14:27;;;;;;;20.38;14.32;;;;;;;;;;5051621;28;20013;-89
2021/10/29 00:16:53;;;;;;;21.90;14.93;;;;;;;;;;5051330;28;20032;-88
2021/10/29 00:19:18;;;;;;;23.40;15.35;;;;;;;;;;5033350;28;20390;-88
2021/10/29 00:21:44;;;;;;;21.35;14.73;;;;;;;;;;5036255;28;20036;-88
2021/10/29 00:24:09;;;;;;;21.17;15.55;;;;;;;;;;5033744;28;20036;-88
2021/10/29 00:26:34;;;;;;;19.95;14.80;;;;;;;;;;5051196;28;20525;-88
2021/10/29 00:29:00;;;;;;;17.40;15.45;;;;;;;;;;5033294;28;20059;-88
2021/10/29 00:31:25;;;;;;;22.02;16.00;;;;;;;;;;5050881;28;20027;-88
2021/10/29 00:33:51;;;;;;;23.60;17.10;;;;;;;;;;5033492;28;20025;-88
2021/10/29 00:36:17;;;;;;;21.88;15.40;;;;;;;;;;5033131;28;20017;-88
2021/10/29 00:38:42;;;;;;;24.05;17.35;;;;;;;;;;5050712;28;20028;-88
2021/10/29 00:41:08;;;;;;;17.85;15.27;;;;;;;;;;5032847;28;20473;-88
2021/10/29 00:43:33;;;;;;;21.67;15.60;;;;;;;;;;5051382;28;20028;-88
2021/10/29 00:45:58;;;;;;;20.77;16.10;;;;;;;;;;5053910;28;20029;-88
2021/10/29 00:48:23;;;;;;;26.02;18.35;;;;;;;;;;5033071;28;20916;-88
2021/10/29 00:50:49;;;;;;;20.40;16.50;;;;;;;;;;5052257;28;20028;-88
2021/10/29 00:53:14;;;;;;;22.10;16.73;;;;;;;;;;5034907;28;20321;-88
2021/10/29 00:55:40;;;;;;;22.75;17.80;;;;;;;;;;5034887;28;20037;-88
2021/10/29 00:58:05;;;;;;;26.65;18.13;;;;;;;;;;5035888;28;20484;-88
2021/10/29 01:00:31;;;;;;;19.92;16.30;;;;;;;;;;5035806;28;20021;-88
2021/10/29 01:02:57;;;;;;;20.15;15.70;;;;;;;;;;5036006;28;20013;-88
2021/10/29 01:05:22;;;;;;;26.67;16.83;;;;;;;;;;5035628;28;20723;-88
2021/10/29 01:07:48;;;;;;;20.77;17.08;;;;;;;;;;5035567;28;20029;-88
2021/10/29 01:10:13;;;;;;;20.92;17.08;;;;;;;;;;5035819;28;20048;-88
2021/10/29 01:12:38;;;;;;;18.02;15.95;;;;;;;;;;5053658;28;20021;-88
2021/10/29 01:15:04;;;;;;;21.30;17.25;;;;;;;;;;5042518;28;20035;-88
2021/10/29 01:17:29;;;;;;;26.02;18.85;;;;;;;;;;5053405;28;20099;-88
2021/10/29 01:19:55;;;;;;;21.35;16.63;;;;;;;;;;5053580;28;20017;-88
2021/10/29 01:22:22;;;;;;;21.88;17.75;;;;;;;;;;5053452;28;20031;-88
2021/10/29 01:24:48;;;;;;;24.40;16.60;;;;;;;;;;5037818;28;20043;-88
2021/10/29 01:27:14;;;;;;;19.52;17.10;;;;;;;;;;5057402;28;20024;-88
2021/10/29 01:29:39;;;;;;;30.20;20.40;;;;;;;;;;5039694;28;20040;-89
2021/10/29 01:32:06;;;;;;;26.20;19.98;;;;;;;;;;5039653;28;20017;-88
2021/10/29 01:34:32;;;;;;;24.42;18.67;;;;;;;;;;5039442;28;20035;-88
2021/10/29 01:36:58;;;;;;;26.30;18.38;;;;;;;;;;5057307;28;20052;-88
2021/10/29 01:39:23;;;;;;;24.80;18.73;;;;;;;;;;5057387;28;20048;-88
2021/10/29 01:41:48;;;;;;;23.30;18.03;;;;;;;;;;5041906;28;20017;-88
2021/10/29 01:44:13;;;;;;;30.55;18.58;;;;;;;;;;5039507;28;20728;-88
2021/10/29 01:46:39;;;;;;;23.63;18.75;;;;;;;;;;5039005;28;20063;-88
2021/10/29 01:49:05;;;;;;;24.30;17.92;;;;;;;;;;5057054;28;20017;-88
2021/10/29 01:51:30;;;;;;;23.70;18.08;;;;;;;;;;5039425;28;20032;-88
2021/10/29 01:53:56;;;;;;;22.85;18.20;;;;;;;;;;5057033;28;20009;-88
2021/10/29 01:56:21;;;;;;;23.20;19.55;;;;;;;;;;5039019;28;20045;-88
2021/10/29 01:58:46;;;;;;;25.02;18.58;;;;;;;;;;5039094;28;20021;-88
2021/10/29 02:01:12;;;;;;;26.10;20.25;;;;;;;;;;5039097;28;20021;-88
2021/10/29 02:03:37;;;;;;;24.50;19.45;;;;;;;;;;5039054;28;20021;-88
2021/10/29 02:06:02;;;;;;;29.38;21.65;;;;;;;;;;5041589;28;20017;-88
2021/10/29 02:08:28;;;;;;;27.42;21.40;;;;;;;;;;5059032;28;20441;-88
2021/10/29 02:10:53;;;;;;;29.52;20.80;;;;;;;;;;5056512;28;20028;-88
2021/10/29 02:13:19;;;;;;;26.83;20.13;;;;;;;;;;5056901;28;20047;-88
2021/10/29 02:15:44;;;;;;;26.40;20.13;;;;;;;;;;5038828;28;20025;-88
2021/10/29 02:18:10;;;;;;;35.45;23.20;;;;;;;;;;5038720;28;20469;-88
2021/10/29 02:20:35;;;;;;;26.05;19.42;;;;;;;;;;5038671;28;20116;-88
2021/10/29 02:23:00;;;;;;;25.83;20.80;;;;;;;;;;5056433;28;20096;-88
2021/10/29 02:25:25;;;;;;;23.52;19.45;;;;;;;;;;5056487;28;20254;-88
2021/10/29 02:27:50;;;;;;;28.53;21.73;;;;;;;;;;5038387;28;20079;-88
2021/10/29 02:30:15;;;;;;;29.03;22.83;;;;;;;;;;5039615;28;20301;-88
2021/10/29 02:32:41;;;;;;;24.13;20.00;;;;;;;;;;5038484;28;20267;-88
2021/10/29 02:35:06;;;;;;;29.35;22.98;;;;;;;;;;5038010;28;20032;-88
2021/10/29 02:37:31;;;;;;;26.77;22.55;;;;;;;;;;5056298;28;20530;-88
2021/10/29 02:39:57;;;;;;;26.58;22.08;;;;;;;;;;5038145;28;20013;-88
2021/10/29 02:42:22;;;;;;;26.58;20.45;;;;;;;;;;5056101;28;20017;-88
2021/10/29 02:44:47;;;;;;;30.03;21.70;;;;;;;;;;5038293;28;20039;-88
2021/10/29 02:47:12;;;;;;;30.17;22.92;;;;;;;;;;5056194;28;20373;-88
2021/10/29 02:49:38;;;;;;;31.75;22.20;;;;;;;;;;5037930;28;20028;-88
2021/10/29 02:52:03;;;;;;;30.20;22.88;;;;;;;;;;5038075;28;20428;-88
2021/10/29 02:54:29;;;;;;;29.23;22.02;;;;;;;;;;5044202;28;20101;-88
2021/10/29 02:56:54;;;;;;;33.45;25.10;;;;;;;;;;5038086;28;20045;-88
2021/10/29 02:59:19;;;;;;;33.58;24.33;;;;;;;;;;5055735;28;20071;-88
2021/10/29 03:01:44;;;;;;;29.98;21.98;;;;;;;;;;5037890;28;20491;-88
2021/10/29 03:04:10;;;;;;;31.27;23.50;;;;;;;;;;5037745;28;20769;-88
2021/10/29 03:06:35;;;;;;;28.10;22.63;;;;;;;;;;5055804;28;20033;-88
2021/10/29 03:09:00;;;;;;;28.88;22.33;;;;;;;;;;5037734;28;20021;-88
2021/10/29 03:11:25;;;;;;;34.42;24.20;;;;;;;;;;5055270;28;20046;-88
2021/10/29 03:13:51;;;;;;;34.72;24.48;;;;;;;;;;5055740;28;20013;-88
2021/10/29 03:16:16;;;;;;;34.40;24.98;;;;;;;;;;5055445;28;20028;-88
2021/10/29 03:18:41;;;;;;;33.93;24.10;;;;;;;;;;5037405;28;20017;-88
2021/10/29 03:21:07;;;;;;;34.75;27.23;;;;;;;;;;5037602;28;20299;-88
2021/10/29 03:23:32;;;;;;;38.67;26.58;;;;;;;;;;5037486;28;20021;-88
2021/10/29 03:25:57;;;;;;;34.70;25.37;;;;;;;;;;5037411;28;20020;-88
2021/10/29 03:28:22;;;;;;;37.13;26.03;;;;;;;;;;5038347;28;20272;-88
2021/10/29 03:30:48;;;;;;;31.50;23.48;;;;;;;;;;5037562;28;20259;-88
2021/10/29 03:33:13;;;;;;;38.17;25.35;;;;;;;;;;5055465;28;20717;-88
2021/10/29 03:35:38;;;;;;;37.33;26.40;;;;;;;;;;5055138;28;20021;-88
2021/10/29 03:43:28;;;;;;;34.13;26.23;;;;;;;;;;5051226;28;20047;-88
2021/10/29 03:46:01;;;;;;;32.60;25.67;;;;;;;;;;5040433;28;20033;-88
2021/10/29 03:48:37;;;;;;;32.95;24.35;;;;;;;;;;5035167;28;20083;-88
2021/10/29 03:54:17;;;;;;;37.47;24.80;;;;;;;;;;5037849;28;20017;-88
2021/10/29 03:56:19;;;;;;;38.92;27.20;;;;;;;;;;5023567;28;20092;-88
2021/10/29 03:58:45;;;;;;;38.03;28.10;;;;;;;;;;5032943;28;20021;-88
2021/10/29 04:01:10;;;;;;;35.95;25.70;;;;;;;;;;5014854;28;20022;-88
2021/10/29 04:03:35;;;;;;;31.45;25.33;;;;;;;;;;5016564;28;20028;-88
2021/10/29 04:06:01;;;;;;;34.73;25.87;;;;;;;;;;5016243;28;20022;-88
2021/10/29 04:08:26;;;;;;;37.72;24.83;;;;;;;;;;5034634;28;20256;-88
2021/10/29 04:10:52;;;;;;;40.03;26.80;;;;;;;;;;5016568;28;20022;-88
2021/10/29 04:13:17;;;;;;;37.72;27.52;;;;;;;;;;5033094;28;20013;-87
2021/10/29 04:15:43;;;;;;;33.53;24.90;;;;;;;;;;5018795;28;20025;-88
2021/10/29 04:18:08;;;;;;;31.70;23.85;;;;;;;;;;5016444;28;20649;-88
2021/10/29 04:20:34;;;;;;;33.50;25.63;;;;;;;;;;5016195;28;20017;-88
2021/10/29 04:22:59;;;;;;;42.47;25.88;;;;;;;;;;5015529;28;20014;-88
2021/10/29 04:25:24;;;;;;;35.17;25.33;;;;;;;;;;5032435;28;20424;-88
2021/10/29 04:27:57;;;;;;;37.83;26.48;;;;;;;;;;5034045;28;20292;-88
2021/10/29 04:30:24;;;;;;;37.15;25.33;;;;;;;;;;5016922;28;20048;-88
2021/10/29 04:32:50;;;;;;;29.85;23.92;;;;;;;;;;5015028;28;20040;-88
2021/10/29 04:35:15;;;;;;;34.42;25.70;;;;;;;;;;5035798;28;20029;-88
2021/10/29 04:37:41;;;;;;;33.90;24.98;;;;;;;;;;5036475;28;20025;-88
2021/10/29 04:40:07;;;;;;;33.45;23.52;;;;;;;;;;5034939;28;20038;-87
2021/10/29 04:42:32;;;;;;;38.33;26.42;;;;;;;;;;5034219;28;20472;-87
2021/10/29 04:44:57;;;;;;;32.00;25.17;;;;;;;;;;5035582;28;20032;-87
2021/10/29 04:47:25;;;;;;;32.25;24.00;;;;;;;;;;5053586;28;20036;-87
2021/10/29 04:49:50;;;;;;;36.28;25.35;;;;;;;;;;5034224;28;20025;-88
2021/10/29 04:52:15;;;;;;;35.23;25.47;;;;;;;;;;5034645;28;20021;-88
2021/10/29 04:54:41;;;;;;;36.15;26.20;;;;;;;;;;5035720;28;20255;-88
2021/10/29 04:57:08;;;;;;;36.13;25.67;;;;;;;;;;5035477;28;20080;-88
2021/10/29 04:59:36;;;;;;;38.58;27.58;;;;;;;;;;5040789;28;20039;-88
2021/10/29 05:02:03;;;;;;;40.38;25.60;;;;;;;;;;5035590;28;20025;-88
2021/10/29 05:04:28;;;;;;;35.65;26.10;;;;;;;;;;5031147;28;20388;-88
2021/10/29 05:09:25;;;;;;;40.88;26.65;;;;;;;;;;5053074;22;20088;-88
2021/10/29 05:14:20;;;;;;;41.10;25.95;;;;;;;;;;5171719;22;20045;-88
2021/10/29 05:16:45;;;;;;;36.30;25.77;;;;;;;;;;5051879;28;20024;-88
2021/10/29 05:19:10;;;;;;;42.08;28.23;;;;;;;;;;5033603;28;20267;-88
2021/10/29 05:21:38;;;;;;;34.78;25.65;;;;;;;;;;5033549;28;20013;-88
2021/10/29 05:24:04;;;;;;;35.92;25.17;;;;;;;;;;5136967;23;20059;-88
2021/10/29 05:26:29;;;;;;;34.10;25.40;;;;;;;;;;5038546;28;20043;-88
2021/10/29 05:28:54;;;;;;;36.38;26.27;;;;;;;;;;5032960;28;20024;-88
2021/10/29 05:31:19;;;;;;;33.67;25.58;;;;;;;;;;5022132;28;20481;-88
2021/10/29 05:33:45;;;;;;;38.28;26.63;;;;;;;;;;5196971;23;20049;-87
2021/10/29 05:36:10;;;;;;;34.63;24.93;;;;;;;;;;5052359;28;20900;-88
2021/10/29 05:38:35;;;;;;;40.65;27.50;;;;;;;;;;5032961;28;20264;-88
2021/10/29 05:41:01;;;;;;;35.85;26.40;;;;;;;;;;5052346;28;20048;-88
2021/10/29 05:43:27;;;;;;;36.25;24.40;;;;;;;;;;5053075;28;20739;-88
2021/10/29 05:45:52;;;;;;;39.15;24.77;;;;;;;;;;5035083;28;20031;-88
2021/10/29 05:48:17;;;;;;;34.38;24.65;;;;;;;;;;5036177;28;20057;-88
2021/10/29 05:50:48;;;;;;;39.90;25.58;;;;;;;;;;5034193;28;20428;-88
2021/10/29 05:53:22;;;;;;;42.45;28.23;;;;;;;;;;5052034;28;20532;-88
2021/10/29 05:55:48;;;;;;;39.55;26.00;;;;;;;;;;5052847;28;20416;-88
2021/10/29 05:58:13;;;;;;;37.25;26.67;;;;;;;;;;5034882;28;20013;-88
2021/10/29 06:00:38;;;;;;;40.15;28.88;;;;;;;;;;5051938;28;20021;-88
2021/10/29 06:03:04;;;;;;;43.30;27.40;;;;;;;;;;5032665;28;20051;-87
2021/10/29 06:05:30;;;;;;;37.22;27.17;;;;;;;;;;5052554;28;20096;-88
2021/10/29 06:07:56;;;;;;;35.85;25.58;;;;;;;;;;5017064;28;20167;-88
2021/10/29 06:10:22;;;;;;;36.50;25.95;;;;;;;;;;5020168;28;20971;-88
2021/10/29 06:12:47;;;;;;;39.20;26.33;;;;;;;;;;5036423;28;20045;-88
2021/10/29 06:15:15;;;;;;;36.75;24.73;;;;;;;;;;5016421;28;20371;-88
2021/10/29 06:17:44;;;;;;;42.88;27.27;;;;;;;;;;5032309;28;20162;-88
2021/10/29 06:20:11;;;;;;;36.08;25.25;;;;;;;;;;5089666;22;20408;-88
2021/10/29 06:22:39;;;;;;;39.35;27.10;;;;;;;;;;5037994;28;20108;-88
2021/10/29 06:25:12;;;;;;;38.20;26.55;;;;;;;;;;5053219;28;20765;-88
2021/10/29 06:30:04;;;;;;;42.10;25.13;;;;;;;;;;5056333;28;20062;-88
2021/10/29 06:32:29;;;;;;;38.35;26.65;;;;;;;;;;5039342;28;20009;-87
2021/10/29 06:34:55;;;;;;;38.08;25.75;;;;;;;;;;5035840;28;20641;-87
2021/10/29 06:37:20;;;;;;;36.72;27.15;;;;;;;;;;5017096;28;20029;-88
2021/10/29 06:39:48;;;;;;;38.42;24.83;;;;;;;;;;5015485;28;20455;-88
2021/10/29 06:42:19;;;;;;;39.40;26.08;;;;;;;;;;5037125;28;20059;-87
2021/10/29 06:45:11;;;;;;;38.50;26.15;;;;;;;;;;5055500;28;20450;-87
2021/10/29 06:47:48;;;;;;;35.40;26.00;;;;;;;;;;5037261;28;20083;-88
2021/10/29 07:01:14;;;;;;;38.58;26.58;;;;;;;;;;5034678;28;20068;-87
2021/10/29 07:04:09;;;;;;;34.80;25.15;;;;;;;;;;5015466;28;20021;-87
2021/10/29 07:41:50;;;;;;;28.15;22.13;;;;;;;;;;5054710;28;20446;-87
2021/10/29 07:44:18;;;;;;;31.65;22.35;;;;;;;;;;5054615;28;20799;-87
2021/10/29 07:46:44;;;;;;;28.13;21.90;;;;;;;;;;5054079;28;20388;-87
2021/10/29 07:49:09;;;;;;;29.92;21.85;;;;;;;;;;5033895;28;20021;-88
2021/10/29 07:51:36;;;;;;;26.73;20.58;;;;;;;;;;5053425;28;20017;-87
2021/10/29 07:54:01;;;;;;;27.80;20.38;;;;;;;;;;5037979;28;20021;-88
2021/10/29 07:56:26;;;;;;;27.35;20.55;;;;;;;;;;5017757;28;20024;-87
2021/10/29 07:58:52;;;;;;;30.20;20.63;;;;;;;;;;5033843;28;20036;-87
2021/10/29 08:01:17;;;;;;;30.38;20.70;;;;;;;;;;5014981;28;20359;-87
2021/10/29 08:03:42;;;;;;;28.38;21.42;;;;;;;;;;5016109;28;20529;-87
2021/10/29 08:06:08;;;;;;;29.60;20.67;;;;;;;;;;5050208;28;20743;-88
2021/10/29 08:08:33;;;;;;;30.15;19.83;;;;;;;;;;5036361;28;20059;-88
2021/10/29 08:10:58;;;;;;;27.75;20.17;;;;;;;;;;5035494;28;20025;-88
2021/10/29 08:13:24;;;;;;;29.83;20.20;;;;;;;;;;5039533;28;20029;-88
2021/10/29 08:15:53;;;;;;;26.55;19.15;;;;;;;;;;5019334;28;20652;-87
2021/10/29 08:18:19;;;;;;;27.60;19.80;;;;;;;;;;5016087;28;20112;-88
2021/10/29 08:20:47;;;;;;;26.58;19.85;;;;;;;;;;5033948;28;20114;-87
2021/10/29 08:23:13;;;;;;;26.30;19.00;;;;;;;;;;5014632;28;20159;-88
2021/10/29 08:25:38;;;;;;;23.52;19.30;;;;;;;;;;5015393;28;20112;-88
2021/10/29 08:28:04;;;;;;;24.55;18.70;;;;;;;;;;5016042;28;20033;-88
2021/10/29 08:30:29;;;;;;;24.38;18.77;;;;;;;;;;5016642;28;20020;-87
2021/10/29 08:32:55;;;;;;;22.42;17.75;;;;;;;;;;5015926;28;20052;-87
2021/10/29 08:35:20;;;;;;;25.00;18.40;;;;;;;;;;5016160;28;20024;-87
2021/10/29 08:37:47;;;;;;;25.00;18.02;;;;;;;;;;5014140;28;20049;-88
2021/10/29 08:40:13;;;;;;;21.98;17.13;;;;;;;;;;5018610;28;20048;-88
2021/10/29 08:42:39;;;;;;;21.58;16.42;;;;;;;;;;5015877;28;20025;-88
2021/10/29 08:45:06;;;;;;;21.00;17.52;;;;;;;;;;5014697;28;20218;-87
2021/10/29 08:47:32;;;;;;;23.00;17.27;;;;;;;;;;5014025;28;20039;-87
2021/10/29 08:49:57;;;;;;;25.13;17.08;;;;;;;;;;5034324;28;20396;-87
2021/10/29 08:52:24;;;;;;;21.33;16.50;;;;;;;;;;5053441;28;20024;-87
2021/10/29 08:54:50;;;;;;;22.23;16.48;;;;;;;;;;5053385;28;20251;-87
2021/10/29 08:57:16;;;;;;;22.52;16.00;;;;;;;;;;5053083;28;20545;-87
2021/10/29 08:59:41;;;;;;;20.20;15.98;;;;;;;;;;5057704;28;20025;-87
2021/10/29 09:04:44;;;;;;;20.10;15.02;;;;;;;;;;5053411;28;21092;-88
2021/10/29 09:09:50;;;;;;;23.48;15.07;;;;;;;;;;5051362;28;20025;-88
2021/10/29 09:17:51;;;;;;;20.08;14.75;;;;;;;;;;5052792;28;20036;-88
2021/10/29 09:33:50;;;;;;;16.85;13.10;;;;;;;;;;5052215;28;20044;-88
2021/10/29 09:36:26;;;;;;;21.90;13.80;;;;;;;;;;5052895;28;20023;-88
2021/10/29 09:38:55;;;;;;;17.00;13.02;;;;;;;;;;5053414;28;20052;-88
2021/10/29 09:41:22;;;;;;;18.45;13.52;;;;;;;;;;5035229;28;20029;-88
2021/10/29 09:43:50;;;;;;;15.63;12.27;;;;;;;;;;5034172;28;20073;-88
2021/10/29 09:46:27;;;;;;;23.60;12.38;;;;;;;;;;5046154;28;20025;-88
2021/10/29 09:48:56;;;;;;;16.52;12.88;;;;;;;;;;5043058;28;20716;-88
2021/10/29 09:51:28;;;;;;;17.63;11.98;;;;;;;;;;5056706;28;20063;-87
2021/10/29 09:58:54;;;;;;;20.40;11.88;;;;;;;;;;5056611;28;20032;-88
2021/10/29 10:01:20;;;;;;;16.55;11.70;;;;;;;;;;5026665;28;20064;-88
2021/10/29 10:03:46;;;;;;;15.30;11.48;;;;;;;;;;5019421;28;20017;-88
2021/10/29 10:06:12;;;;;;;14.23;11.07;;;;;;;;;;5018853;28;20071;-88
2021/10/29 10:08:38;;;;;;;15.30;11.10;;;;;;;;;;5017153;28;20446;-88
2021/10/29 10:11:04;;;;;;;14.32;10.95;;;;;;;;;;5029191;28;20028;-88
2021/10/29 10:13:31;;;;;;;19.65;12.02;;;;;;;;;;5038842;28;20021;-88
2021/10/29 10:15:59;;;;;;;16.02;11.63;;;;;;;;;;5056460;28;20017;-88
2021/10/29 10:18:25;;;;;;;17.63;12.43;;;;;;;;;;5054557;28;20098;-88
2021/10/29 10:20:51;;;;;;;14.20;11.73;;;;;;;;;;5037887;28;20056;-88
2021/10/29 10:23:20;;;;;;;14.00;11.90;;;;;;;;;;5038725;28;20032;-88
2021/10/29 10:26:04;;;;;;;19.00;11.63;;;;;;;;;;5022764;28;20216;-88
2021/10/29 10:42:44;;;;;;;17.83;12.27;;;;;;;;;;5054431;28;20040;-88
2021/10/29 10:47:48;;;;;;;13.70;11.95;;;;;;;;;;5041695;28;20033;-88
2021/10/29 10:50:21;;;;;;;15.70;11.80;;;;;;;;;;5035824;28;20125;-88
2021/10/29 10:53:02;;;;;;;13.25;11.10;;;;;;;;;;5035892;28;20804;-88
2021/10/29 10:55:32;;;;;;;15.60;11.40;;;;;;;;;;5015845;28;20536;-88
2021/10/29 10:58:13;;;;;;;14.57;11.90;;;;;;;;;;5033815;28;20048;-88
2021/10/29 11:00:38;;;;;;;;;;;;;;;;;;5041325;28;20487;-88
2021/10/29 11:10:57;;;;;;;20.17;11.45;;;;;;;;;;5055754;28;20734;-88
2021/10/29 11:13:24;;;;;;;14.60;11.68;;;;;;;;;;5037464;28;20428;-88
2021/10/29 11:15:56;;;;;;;15.25;12.05;;;;;;;;;;5037178;28;20021;-89
2021/10/29 11:18:30;;;;;;;17.92;11.23;;;;;;;;;;5052909;28;20421;-88
2021/10/29 11:21:05;;;;;;;13.77;10.18;;;;;;;;;;5037038;28;20519;-88
2021/10/29 11:23:34;;;;;;;14.93;11.15;;;;;;;;;;5062816;28;20751;-88
2021/10/29 11:26:05;;;;;;;14.32;10.00;;;;;;;;;;5037322;28;20024;-88
2021/10/29 11:28:33;;;;;;;13.88;10.70;;;;;;;;;;5036428;28;20079;-89
2021/10/29 11:30:59;;;;;;;16.55;10.98;;;;;;;;;;5035028;28;20081;-87
2021/10/29 11:33:25;;;;;;;16.55;11.75;;;;;;;;;;5036255;28;20526;-87
2021/10/29 11:35:58;;;;;;;15.90;11.77;;;;;;;;;;5038707;28;20017;-87
2021/10/29 11:38:23;;;;;;;12.25;10.10;;;;;;;;;;5034865;28;20037;-87
2021/10/29 11:40:50;;;;;;;12.85;9.95;;;;;;;;;;5034859;28;20462;-87
2021/10/29 11:43:22;;;;;;;16.60;10.07;;;;;;;;;;5023452;28;20045;-87
2021/10/29 11:45:48;;;;;;;13.48;10.88;;;;;;;;;;5076412;28;20107;-88
2021/10/29 11:48:13;;;;;;;14.23;10.27;;;;;;;;;;5056883;28;20433;-88
2021/10/29 11:50:39;;;;;;;14.02;10.48;;;;;;;;;;5056625;28;20025;-88
2021/10/29 11:53:04;;;;;;;16.52;11.05;;;;;;;;;;5074496;28;20028;-87
2021/10/29 11:55:54;;;;;;;14.07;10.38;;;;;;;;;;5054817;28;20024;-88
2021/10/29 11:58:46;;;;;;;17.88;10.68;;;;;;;;;;5074041;28;20031;-87
2021/10/29 12:09:27;;;;;;;16.90;10.20;;;;;;;;;;5051526;28;20039;-88
2021/10/29 12:11:57;;;;;;;12.90;9.98;;;;;;;;;;5014475;28;20879;-88
2021/10/29 12:14:29;;;;;;;12.50;9.20;;;;;;;;;;5016842;28;20025;-87
2021/10/29 12:16:59;;;;;;;15.27;10.55;;;;;;;;;;5034030;28;20808;-87
2021/10/29 12:19:24;;;;;;;12.32;8.98;;;;;;;;;;5032709;28;20017;-88
2021/10/29 12:21:55;;;;;;;16.15;9.43;;;;;;;;;;5014729;28;20382;-87
2021/10/29 12:24:21;;;;;;;13.73;8.90;;;;;;;;;;5034214;28;20824;-87
2021/10/29 12:26:53;;;;;;;13.25;9.60;;;;;;;;;;5033812;28;20108;-87
2021/10/29 12:29:19;;;;;;;11.98;10.10;;;;;;;;;;5029163;28;20044;-87
2021/10/29 13:02:56;;;;;;;13.00;8.63;;;;;;;;;;5020666;28;20165;-88
2021/10/29 13:05:21;;;;;;;10.75;7.55;;;;;;;;;;5031873;28;20025;-88
2021/10/29 13:07:47;;;;;;;9.50;7.35;;;;;;;;;;5030316;28;20685;-88
2021/10/29 13:10:12;;;;;;;10.77;7.68;;;;;;;;;;5034576;28;20070;-88
2021/10/29 13:15:12;;;;;;;9.35;7.90;;;;;;;;;;5033137;28;20474;-88
2021/10/29 13:17:43;;;;;;;11.95;8.15;;;;;;;;;;5032719;28;20481;-88
2021/10/29 13:20:25;;;;;;;9.18;7.95;;;;;;;;;;5034145;28;20028;-88
2021/10/29 13:51:34;;;;;;;14.10;8.20;;;;;;;;;;5057785;28;20028;-88
2021/10/29 13:54:14;;;;;;;8.90;7.63;;;;;;;;;;5037942;28;20052;-88
2021/10/29 14:32:23;;;;;;;8.15;7.30;;;;;;;;;;5033822;28;20106;-88
2021/10/29 14:34:54;;;;;;;12.38;7.75;;;;;;;;;;5046485;28;20083;-88
2021/10/29 14:37:44;;;;;;;12.07;7.63;;;;;;;;;;5056410;28;20049;-88
2021/10/29 14:43:42;;;;;;;15.70;7.60;;;;;;;;;;5055365;28;20449;-88
2021/10/29 15:26:36;;;;;;;18.90;8.50;;;;;;;;;;5055831;28;20078;-88
2021/10/29 15:29:13;;;;;;;26.83;10.00;;;;;;;;;;5037979;28;20021;-88
2021/10/29 15:31:56;;;;;;;14.57;8.13;;;;;;;;;;5044324;28;20029;-88
2021/10/29 15:48:00;;;;;;;11.52;8.50;;;;;;;;;;5054991;28;20032;-89
2021/10/29 15:50:32;;;;;;;12.50;8.23;;;;;;;;;;5036864;28;20021;-88
2021/10/29 15:52:59;;;;;;;9.90;7.88;;;;;;;;;;5036787;28;20124;-88
2021/10/29 15:58:04;;;;;;;11.07;7.93;;;;;;;;;;5054577;28;20028;-88
2021/10/29 16:00:47;;;;;;;11.85;8.55;;;;;;;;;;5036881;28;20025;-88
2021/10/29 16:03:31;;;;;;;9.38;7.85;;;;;;;;;;5054703;28;20021;-89
2021/10/29 16:21:59;;;;;;;10.43;7.70;;;;;;;;;;5244172;22;20034;-89
2021/10/29 16:27:00;;;;;;;14.35;9.13;;;;;;;;;;5057847;22;20103;-91
2021/10/29 16:29:26;;;;;;;9.48;7.57;;;;;;;;;;5025973;28;20108;-87
2021/10/29 16:31:54;;;;;;;12.02;7.78;;;;;;;;;;5053900;28;20048;-87
2021/10/29 16:34:19;;;;;;;12.30;7.47;;;;;;;;;;5016383;28;20143;-86
2021/10/29 16:36:44;;;;;;;11.13;8.40;;;;;;;;;;5016167;28;20112;-86
2021/10/29 16:39:10;;;;;;;11.25;7.45;;;;;;;;;;5014688;28;20688;-86
2021/10/29 16:41:35;;;;;;;9.75;7.45;;;;;;;;;;5015222;28;20014;-86
2021/10/29 16:44:00;;;;;;;10.00;7.97;;;;;;;;;;5016479;28;20017;-86
2021/10/29 16:46:26;;;;;;;14.53;8.13;;;;;;;;;;5033717;28;20257;-86
2021/10/29 16:48:54;;;;;;;16.90;7.75;;;;;;;;;;5015340;28;20268;-87
2021/10/29 16:51:20;;;;;;;11.18;7.40;;;;;;;;;;5031224;28;20025;-87
2021/10/29 16:53:45;;;;;;;14.68;9.18;;;;;;;;;;5011629;28;20052;-88
2021/10/29 16:56:12;;;;;;;10.52;7.25;;;;;;;;;;5013927;28;20037;-88
2021/10/29 16:58:37;;;;;;;11.98;8.25;;;;;;;;;;5052902;22;20824;-87
2021/10/29 17:03:35;;;;;;;13.70;7.53;;;;;;;;;;4910147;22;20107;-87
2021/10/29 17:06:00;;;;;;;11.17;7.70;;;;;;;;;;5050946;23;20880;-87
2021/10/29 17:08:25;;;;;;;12.93;7.47;;;;;;;;;;5056716;28;20315;-88
2021/10/29 17:10:51;;;;;;;14.15;7.97;;;;;;;;;;5038401;28;20346;-88
2021/10/29 17:13:16;;;;;;;11.30;7.25;;;;;;;;;;5052606;28;20021;-87
2021/10/29 17:15:41;;;;;;;10.23;7.30;;;;;;;;;;5034422;28;20384;-88
2021/10/29 17:18:08;;;;;;;13.07;8.02;;;;;;;;;;5035504;28;20264;-87
2021/10/29 17:28:16;;;;;;;10.50;7.22;;;;;;;;;;5613061;22;20053;-88
2021/10/29 17:33:27;;;;;;;9.18;7.30;;;;;;;;;;5511821;22;20083;-86
2021/10/29 17:35:52;;;;;;;9.60;7.28;;;;;;;;;;5033947;28;20756;-86
2021/10/29 17:38:18;;;;;;;10.48;7.47;;;;;;;;;;5050386;28;20021;-87
2021/10/29 17:40:43;;;;;;;11.57;6.95;;;;;;;;;;5052955;28;20045;-87
2021/10/29 17:43:08;;;;;;;10.80;6.95;;;;;;;;;;5035533;28;20353;-87
2021/10/29 17:45:34;;;;;;;11.88;7.32;;;;;;;;;;5055250;28;20009;-86
2021/10/29 17:47:59;;;;;;;9.75;6.93;;;;;;;;;;5033532;28;20048;-87
2021/10/29 17:50:24;;;;;;;9.52;7.10;;;;;;;;;;5034707;28;20027;-87
2021/10/29 17:52:52;;;;;;;8.20;6.72;;;;;;;;;;5044947;28;20025;-87
2021/10/29 17:55:18;;;;;;;9.63;7.35;;;;;;;;;;5015143;28;20667;-87
2021/10/29 17:57:43;;;;;;;10.23;5.95;;;;;;;;;;5014445;28;20108;-87
2021/10/29 18:00:09;;;;;;;10.98;7.00;;;;;;;;;;5013493;28;20112;-87
2021/10/29 18:02:34;;;;;;;14.00;7.00;;;;;;;;;;5033244;28;20029;-87
2021/10/29 18:04:59;;;;;;;8.95;6.68;;;;;;;;;;5024412;28;20108;-87
2021/10/29 18:07:27;;;;;;;10.40;6.93;;;;;;;;;;5055772;28;20057;-87
2021/10/29 18:09:52;;;;;;;9.65;6.72;;;;;;;;;;5038825;28;20024;-87
2021/10/29 18:12:18;;;;;;;9.15;6.40;;;;;;;;;;5034974;28;20027;-87
2021/10/29 18:14:44;;;;;;;11.07;6.63;;;;;;;;;;5024980;28;20646;-87
2021/10/29 18:17:11;;;;;;;11.70;7.15;;;;;;;;;;5057155;28;20029;-87
2021/10/29 18:19:36;;;;;;;10.65;7.10;;;;;;;;;;5039119;28;20070;-87
2021/10/29 18:22:02;;;;;;;8.07;5.88;;;;;;;;;;5058626;28;20116;-86
2021/10/29 18:24:27;;;;;;;10.93;6.38;;;;;;;;;;5036076;28;20754;-86
2021/10/29 18:26:53;;;;;;;11.40;7.30;;;;;;;;;;5038350;28;20155;-87
2021/10/29 18:29:18;;;;;;;7.50;6.40;;;;;;;;;;5038308;28;20263;-88
2021/10/29 18:31:44;;;;;;;13.73;6.88;;;;;;;;;;5037597;28;20029;-89
2021/10/29 18:34:09;;;;;;;8.35;6.30;;;;;;;;;;5018070;28;20493;-88
2021/10/29 18:36:35;;;;;;;10.57;6.55;;;;;;;;;;5018379;28;20021;-89
2021/10/29 18:39:00;;;;;;;7.70;6.10;;;;;;;;;;5031705;28;20120;-89
2021/10/29 18:41:31;;;;;;;7.95;6.15;;;;;;;;;;5030454;28;20024;-89
2021/10/29 18:43:56;;;;;;;11.48;6.32;;;;;;;;;;5019839;28;20441;-89
2021/10/29 18:46:21;;;;;;;9.82;6.47;;;;;;;;;;5019324;28;20026;-88
2021/10/29 18:48:49;;;;;;;18.17;6.43;;;;;;;;;;5037022;28;20037;-89
2021/10/29 18:51:15;;;;;;;8.15;6.90;;;;;;;;;;5018207;28;20268;-88
2021/10/29 18:53:40;;;;;;;8.80;5.90;;;;;;;;;;5018242;28;20365;-88
2021/10/29 18:56:07;;;;;;;7.40;5.70;;;;;;;;;;5020298;28;20279;-88
2021/10/29 18:58:33;;;;;;;9.15;7.20;;;;;;;;;;5037441;28;20279;-88
2021/10/29 19:00:58;;;;;;;10.18;6.85;;;;;;;;;;5019360;28;20018;-89
2021/10/29 19:03:23;;;;;;;11.57;7.68;;;;;;;;;;5019180;28;20017;-89
2021/10/29 19:05:48;;;;;;;11.07;6.60;;;;;;;;;;5018053;28;20052;-89
2021/10/29 19:08:14;;;;;;;9.30;6.77;;;;;;;;;;5036496;28;20331;-89
2021/10/29 19:10:39;;;;;;;10.33;5.93;;;;;;;;;;5035782;28;20348;-89
2021/10/29 19:13:04;;;;;;;9.23;6.57;;;;;;;;;;5018529;28;20347;-89
2021/10/29 19:15:29;;;;;;;12.17;6.43;;;;;;;;;;5018548;28;20303;-88
2021/10/29 19:17:57;;;;;;;11.57;6.80;;;;;;;;;;5017758;28;20318;-89
2021/10/29 19:20:22;;;;;;;8.88;6.57;;;;;;;;;;5035992;28;20017;-89
2021/10/29 19:22:48;;;;;;;11.63;6.90;;;;;;;;;;5017894;28;20024;-89
2021/10/29 19:25:13;;;;;;;8.10;6.25;;;;;;;;;;5036044;28;20022;-89
2021/10/29 19:27:38;;;;;;;8.52;6.53;;;;;;;;;;5018348;28;20037;-89
2021/10/29 19:30:05;;;;;;;9.30;6.10;;;;;;;;;;5017851;28;20103;-89
2021/10/29 19:32:31;;;;;;;10.98;5.70;;;;;;;;;;5035220;28;20026;-89
2021/10/29 19:34:57;;;;;;;9.00;6.00;;;;;;;;;;5017926;28;20445;-89
2021/10/29 19:37:36;;;;;;;10.75;6.50;;;;;;;;;;5017746;28;20024;-89